Time;durP1;ratioP1;P1;durP2;ratioP2;P2;SDS_P1;SDS_P2;PMS_P1;PMS_P2;Temp;Humidity;BMP_temperature;BMP_pressure;BME280_temperature;BME280_humidity;BME280_pressure;Samples;Min_cycle;Max_cycle;Signal;HPM_P1;HPM_P2
2022/11/04 00:01:23;;;;;;;3.13;1.10;;;;;;;;;;5047518;28;20056;-70
2022/11/04 00:03:49;;;;;;;3.75;1.40;;;;;;;;;;5048954;28;20100;-70
2022/11/04 00:06:15;;;;;;;4.35;1.13;;;;;;;;;;5045339;28;20033;-70
2022/11/04 00:08:40;;;;;;;1.20;0.88;;;;;;;;;;5040995;28;20399;-70
2022/11/04 00:13:50;;;;;;;1.67;1.02;;;;;;;;;;5047705;28;20040;-70
2022/11/04 00:19:00;;;;;;;3.95;1.20;;;;;;;;;;5039450;28;20067;-70
2022/11/04 00:29:38;;;;;;;3.90;1.40;;;;;;;;;;5047394;28;20056;-70
2022/11/04 00:34:48;;;;;;;3.97;1.33;;;;;;;;;;5047863;28;20097;-70
2022/11/04 00:37:13;;;;;;;4.68;1.15;;;;;;;;;;5048682;28;20025;-70
2022/11/04 00:39:38;;;;;;;2.83;1.00;;;;;;;;;;5045305;28;20036;-70
2022/11/04 00:42:04;;;;;;;4.75;1.17;;;;;;;;;;5046915;28;20449;-70
2022/11/04 00:44:29;;;;;;;2.58;1.20;;;;;;;;;;5046381;28;20533;-70
2022/11/04 00:46:54;;;;;;;5.95;1.35;;;;;;;;;;5062889;28;20429;-70
2022/11/04 00:49:20;;;;;;;4.00;1.20;;;;;;;;;;5067776;28;20033;-70
2022/11/04 00:51:45;;;;;;;2.33;1.17;;;;;;;;;;5065701;28;20073;-70
2022/11/04 00:54:10;;;;;;;9.27;1.77;;;;;;;;;;5066775;28;20029;-70
2022/11/04 00:56:39;;;;;;;4.30;1.38;;;;;;;;;;5065717;28;20056;-70
2022/11/04 00:59:05;;;;;;;3.83;1.17;;;;;;;;;;5067628;28;20033;-70
2022/11/04 01:01:31;;;;;;;3.38;1.13;;;;;;;;;;5050694;28;20078;-70
2022/11/04 01:03:56;;;;;;;3.42;1.17;;;;;;;;;;5038463;28;20017;-70
2022/11/04 01:06:24;;;;;;;3.22;1.10;;;;;;;;;;5041829;28;20094;-70
2022/11/04 01:08:58;;;;;;;3.72;1.10;;;;;;;;;;5047911;28;20124;-70
2022/11/04 01:11:24;;;;;;;3.75;1.33;;;;;;;;;;5045071;28;20083;-70
2022/11/04 01:13:50;;;;;;;3.13;1.05;;;;;;;;;;5046065;28;20029;-70
2022/11/04 01:16:16;;;;;;;7.82;1.38;;;;;;;;;;5045718;28;20036;-70
2022/11/04 01:18:41;;;;;;;6.07;1.30;;;;;;;;;;5046192;28;20493;-70
2022/11/04 01:21:10;;;;;;;4.30;1.27;;;;;;;;;;5047282;28;20041;-70
2022/11/04 01:23:35;;;;;;;6.03;1.17;;;;;;;;;;5037345;28;20136;-70
2022/11/04 01:26:04;;;;;;;4.57;1.20;;;;;;;;;;5044790;28;21029;-70
2022/11/04 01:28:29;;;;;;;2.10;1.13;;;;;;;;;;5047005;28;20044;-70
2022/11/04 01:30:54;;;;;;;9.27;1.65;;;;;;;;;;5047859;28;20033;-70
2022/11/04 01:33:20;;;;;;;3.90;1.25;;;;;;;;;;5046529;28;20526;-70
2022/11/04 01:35:45;;;;;;;7.78;1.08;;;;;;;;;;5045782;28;20110;-70
2022/11/04 01:38:10;;;;;;;5.05;1.60;;;;;;;;;;5037650;28;20025;-70
2022/11/04 01:40:37;;;;;;;3.65;1.60;;;;;;;;;;5037921;28;20120;-70
2022/11/04 01:43:03;;;;;;;2.45;1.20;;;;;;;;;;5027904;28;20080;-70
2022/11/04 01:45:28;;;;;;;2.47;1.50;;;;;;;;;;5031777;28;20036;-70
2022/11/04 01:48:03;;;;;;;3.17;1.50;;;;;;;;;;5047573;28;20099;-70
2022/11/04 01:50:31;;;;;;;6.55;1.58;;;;;;;;;;5040162;28;20037;-70
2022/11/04 01:53:03;;;;;;;2.78;1.08;;;;;;;;;;5046080;28;20509;-70
2022/11/04 01:55:32;;;;;;;2.40;1.23;;;;;;;;;;5067027;28;20020;-70
2022/11/04 01:58:04;;;;;;;5.82;1.70;;;;;;;;;;5064509;28;20099;-70
2022/11/04 02:00:31;;;;;;;3.65;1.63;;;;;;;;;;5039627;28;20148;-70
2022/11/04 02:03:05;;;;;;;6.47;1.75;;;;;;;;;;5044083;28;20033;-70
2022/11/04 02:05:31;;;;;;;3.60;1.67;;;;;;;;;;5046584;28;20044;-70
2022/11/04 02:08:01;;;;;;;3.35;1.55;;;;;;;;;;5046176;28;20037;-70
2022/11/04 02:10:28;;;;;;;4.40;1.90;;;;;;;;;;5040811;28;20025;-70
2022/11/04 02:12:55;;;;;;;7.18;2.13;;;;;;;;;;5039009;28;20115;-70
2022/11/04 02:15:47;;;;;;;2.13;1.63;;;;;;;;;;5035006;28;20029;-70
2022/11/04 02:18:50;;;;;;;7.63;1.48;;;;;;;;;;5041810;28;20784;-70
2022/11/04 02:21:41;;;;;;;2.28;1.40;;;;;;;;;;5042384;28;20052;-70
2022/11/04 02:24:37;;;;;;;5.35;1.67;;;;;;;;;;5028217;28;20030;-70
2022/11/04 02:27:18;;;;;;;7.60;1.95;;;;;;;;;;5044417;28;20045;-70
2022/11/04 02:30:13;;;;;;;7.47;2.03;;;;;;;;;;5045528;28;20122;-70
2022/11/04 02:32:57;;;;;;;11.55;2.33;;;;;;;;;;5042805;28;20041;-70
2022/11/04 02:36:01;;;;;;;7.40;2.40;;;;;;;;;;5066069;28;20045;-70
2022/11/04 02:38:29;;;;;;;8.00;2.80;;;;;;;;;;5062045;28;20533;-70
2022/11/04 02:41:13;;;;;;;6.85;2.20;;;;;;;;;;5028995;28;20029;-70
2022/11/04 02:43:52;;;;;;;5.50;2.28;;;;;;;;;;5033958;28;20041;-70
2022/11/04 02:46:25;;;;;;;4.80;2.08;;;;;;;;;;5044436;28;20918;-70
2022/11/04 02:49:11;;;;;;;5.47;2.50;;;;;;;;;;5048897;28;20448;-70
2022/11/04 02:51:48;;;;;;;5.68;1.92;;;;;;;;;;5050015;28;20587;-70
2022/11/04 02:54:30;;;;;;;9.38;1.98;;;;;;;;;;5049751;28;20028;-70
2022/11/04 02:56:58;;;;;;;4.40;2.15;;;;;;;;;;5045082;28;20091;-70
2022/11/04 02:59:32;;;;;;;9.55;2.40;;;;;;;;;;5046360;28;20061;-70
2022/11/04 03:02:01;;;;;;;7.00;2.53;;;;;;;;;;5048599;28;20037;-70
2022/11/04 03:04:31;;;;;;;4.78;2.45;;;;;;;;;;5042765;28;20052;-70
2022/11/04 03:06:59;;;;;;;7.78;3.20;;;;;;;;;;5050251;28;20048;-70
2022/11/04 03:09:28;;;;;;;8.65;2.25;;;;;;;;;;5044578;28;20051;-70
2022/11/04 03:12:00;;;;;;;5.65;2.20;;;;;;;;;;5048533;28;20103;-70
2022/11/04 03:14:30;;;;;;;11.02;2.60;;;;;;;;;;5048189;28;20790;-70
2022/11/04 03:17:00;;;;;;;5.68;1.88;;;;;;;;;;5045841;28;20108;-70
2022/11/04 03:19:25;;;;;;;4.38;2.67;;;;;;;;;;5046685;28;20025;-70
2022/11/04 03:22:09;;;;;;;11.30;2.80;;;;;;;;;;5039818;28;20075;-70
2022/11/04 03:24:34;;;;;;;3.05;1.75;;;;;;;;;;5032345;28;20044;-70
2022/11/04 03:27:05;;;;;;;5.65;2.53;;;;;;;;;;5047679;28;20032;-70
2022/11/04 03:29:36;;;;;;;7.60;2.55;;;;;;;;;;5040866;28;20132;-70
2022/11/04 03:32:11;;;;;;;6.53;2.63;;;;;;;;;;5029375;28;20060;-70
2022/11/04 03:34:37;;;;;;;5.43;2.20;;;;;;;;;;5031018;28;20025;-70
2022/11/04 03:37:03;;;;;;;5.63;2.38;;;;;;;;;;5040159;28;20040;-70
2022/11/04 03:39:28;;;;;;;6.65;1.95;;;;;;;;;;5049298;28;20036;-70
2022/11/04 03:42:01;;;;;;;7.53;2.42;;;;;;;;;;5044790;28;20053;-70
2022/11/04 03:44:28;;;;;;;9.30;2.23;;;;;;;;;;5036362;28;20120;-70
2022/11/04 03:46:53;;;;;;;8.50;2.17;;;;;;;;;;5059363;28;20040;-70
2022/11/04 03:49:21;;;;;;;7.25;1.92;;;;;;;;;;5069010;28;20665;-70
2022/11/04 03:51:47;;;;;;;3.78;1.90;;;;;;;;;;5054427;28;20024;-70
2022/11/04 03:54:13;;;;;;;7.35;2.25;;;;;;;;;;5051956;28;20041;-70
2022/11/04 03:57:03;;;;;;;3.92;1.90;;;;;;;;;;5042239;28;20039;-70
2022/11/04 03:59:56;;;;;;;4.72;1.70;;;;;;;;;;5045959;28;20040;-70
2022/11/04 04:02:50;;;;;;;6.13;1.90;;;;;;;;;;5047358;28;20149;-70
2022/11/04 04:05:20;;;;;;;6.80;1.80;;;;;;;;;;5046112;28;20117;-70
2022/11/04 04:08:10;;;;;;;8.93;2.38;;;;;;;;;;5040288;28;20748;-70
2022/11/04 04:10:41;;;;;;;6.43;1.92;;;;;;;;;;5048875;28;20117;-70
2022/11/04 04:13:18;;;;;;;9.10;2.25;;;;;;;;;;5044438;28;20018;-70
2022/11/04 04:15:59;;;;;;;5.38;1.65;;;;;;;;;;5028466;28;20029;-70
2022/11/04 04:18:37;;;;;;;8.23;1.60;;;;;;;;;;5041721;28;20086;-70
2022/11/04 04:21:08;;;;;;;2.40;1.48;;;;;;;;;;5043550;28;20041;-70
2022/11/04 04:29:07;;;;;;;3.28;1.10;;;;;;;;;;5043737;28;20040;-70
2022/11/04 04:31:48;;;;;;;4.13;1.77;;;;;;;;;;5048243;28;20414;-70
2022/11/04 04:34:14;;;;;;;8.25;1.88;;;;;;;;;;5048310;28;20497;-70
2022/11/04 04:36:52;;;;;;;9.73;2.40;;;;;;;;;;5048399;28;20117;-70
2022/11/04 04:45:02;;;;;;;9.98;1.92;;;;;;;;;;5045448;28;20031;-70
2022/11/04 04:47:33;;;;;;;4.40;1.70;;;;;;;;;;5066327;28;20068;-70
2022/11/04 04:49:59;;;;;;;3.33;1.70;;;;;;;;;;5062862;28;20028;-70
2022/11/04 04:52:29;;;;;;;6.38;1.80;;;;;;;;;;5034703;28;20028;-70
2022/11/04 04:54:54;;;;;;;5.60;1.88;;;;;;;;;;5028154;28;20010;-70
2022/11/04 04:57:20;;;;;;;5.88;1.75;;;;;;;;;;5027889;28;20030;-70
2022/11/04 04:59:45;;;;;;;5.07;1.90;;;;;;;;;;5026992;28;20033;-70
2022/11/04 05:02:10;;;;;;;4.88;1.58;;;;;;;;;;5028242;28;20030;-70
2022/11/04 05:04:36;;;;;;;9.13;1.58;;;;;;;;;;5040776;28;20025;-71
2022/11/04 05:07:01;;;;;;;6.78;2.05;;;;;;;;;;5046355;28;20017;-70
2022/11/04 05:09:26;;;;;;;10.45;1.52;;;;;;;;;;5045602;28;20116;-70
2022/11/04 05:11:52;;;;;;;2.53;1.35;;;;;;;;;;5047436;28;20094;-70
2022/11/04 05:14:18;;;;;;;8.95;2.15;;;;;;;;;;5044253;28;20462;-70
2022/11/04 05:16:43;;;;;;;6.75;2.08;;;;;;;;;;5039102;28;20410;-70
2022/11/04 05:19:08;;;;;;;8.38;1.80;;;;;;;;;;5033183;28;20021;-70
2022/11/04 05:21:34;;;;;;;7.82;1.73;;;;;;;;;;5027786;28;20037;-70
2022/11/04 05:23:59;;;;;;;3.83;1.80;;;;;;;;;;5039581;28;20083;-70
2022/11/04 05:26:25;;;;;;;6.18;1.92;;;;;;;;;;5040348;28;20367;-70
2022/11/04 05:28:50;;;;;;;4.75;1.65;;;;;;;;;;5044477;28;20036;-70
2022/11/04 05:31:15;;;;;;;4.57;1.92;;;;;;;;;;5047621;28;20029;-69
2022/11/04 05:33:41;;;;;;;8.23;2.38;;;;;;;;;;5038851;28;20083;-70
2022/11/04 05:36:11;;;;;;;6.68;1.90;;;;;;;;;;5045032;28;20044;-70
2022/11/04 05:38:37;;;;;;;5.78;1.90;;;;;;;;;;5026715;28;20030;-70
2022/11/04 05:41:04;;;;;;;7.47;1.67;;;;;;;;;;5045684;28;20056;-70
2022/11/04 05:43:30;;;;;;;6.70;1.92;;;;;;;;;;5043154;28;20074;-70
2022/11/04 05:45:58;;;;;;;8.82;1.85;;;;;;;;;;5052650;28;20032;-70
2022/11/04 05:48:23;;;;;;;5.32;1.67;;;;;;;;;;5065804;28;20043;-70
2022/11/04 05:50:49;;;;;;;5.90;1.58;;;;;;;;;;5066627;28;20028;-70
2022/11/04 05:53:14;;;;;;;3.33;1.80;;;;;;;;;;5047052;28;20045;-70
2022/11/04 05:55:39;;;;;;;6.28;1.67;;;;;;;;;;5060216;28;20509;-69
2022/11/04 05:58:05;;;;;;;5.30;1.58;;;;;;;;;;5065806;28;20482;-70
2022/11/04 06:00:30;;;;;;;6.38;1.67;;;;;;;;;;5065525;28;20031;-70
2022/11/04 06:02:58;;;;;;;5.00;1.40;;;;;;;;;;5031302;28;20033;-70
2022/11/04 06:05:25;;;;;;;4.00;1.73;;;;;;;;;;5033905;28;20095;-70
2022/11/04 06:07:50;;;;;;;4.30;1.80;;;;;;;;;;5034162;28;20040;-70
2022/11/04 06:10:16;;;;;;;7.10;1.90;;;;;;;;;;5027101;28;20025;-70
2022/11/04 06:12:41;;;;;;;4.53;2.00;;;;;;;;;;5026688;28;20029;-70
2022/11/04 06:15:07;;;;;;;2.53;1.50;;;;;;;;;;5026637;28;20128;-70
2022/11/04 06:17:32;;;;;;;8.50;2.08;;;;;;;;;;5024060;28;21080;-70
2022/11/04 06:19:58;;;;;;;6.18;1.90;;;;;;;;;;5043117;28;20037;-70
2022/11/04 06:22:23;;;;;;;4.38;1.67;;;;;;;;;;5030204;28;20450;-70
2022/11/04 06:24:49;;;;;;;3.28;1.70;;;;;;;;;;5036353;28;20021;-70
2022/11/04 06:27:14;;;;;;;6.45;2.15;;;;;;;;;;5037008;28;20029;-70
2022/11/04 06:29:40;;;;;;;2.95;1.73;;;;;;;;;;5029205;28;20034;-70
2022/11/04 06:32:11;;;;;;;9.00;1.90;;;;;;;;;;5024543;28;20038;-70
2022/11/04 06:34:36;;;;;;;3.90;1.77;;;;;;;;;;5024331;28;20028;-70
2022/11/04 06:37:02;;;;;;;4.80;2.22;;;;;;;;;;5026466;28;20227;-70
2022/11/04 06:39:27;;;;;;;5.65;2.22;;;;;;;;;;5032781;28;20076;-70
2022/11/04 06:41:53;;;;;;;5.07;2.20;;;;;;;;;;5038726;28;20125;-70
2022/11/04 06:44:18;;;;;;;8.68;2.35;;;;;;;;;;5047369;28;20035;-70
2022/11/04 06:46:44;;;;;;;5.32;2.58;;;;;;;;;;5064407;28;20131;-70
2022/11/04 06:49:14;;;;;;;5.78;1.65;;;;;;;;;;5065848;28;20035;-70
2022/11/04 06:51:40;;;;;;;7.68;1.73;;;;;;;;;;5065593;28;20036;-70
2022/11/04 06:54:06;;;;;;;6.03;1.92;;;;;;;;;;5038551;28;20029;-70
2022/11/04 06:56:31;;;;;;;5.90;1.73;;;;;;;;;;5036445;28;20418;-70
2022/11/04 06:58:57;;;;;;;7.30;2.05;;;;;;;;;;5043395;28;20037;-70
2022/11/04 07:01:25;;;;;;;7.15;1.83;;;;;;;;;;5043149;28;20040;-70
2022/11/04 07:03:53;;;;;;;5.05;2.05;;;;;;;;;;5046051;28;20481;-70
2022/11/04 07:06:20;;;;;;;4.30;2.03;;;;;;;;;;5040030;28;20483;-70
2022/11/04 07:08:48;;;;;;;3.17;1.75;;;;;;;;;;5044611;28;20116;-70
2022/11/04 07:11:15;;;;;;;4.93;1.90;;;;;;;;;;5035844;28;20065;-70
2022/11/04 07:13:40;;;;;;;4.47;1.92;;;;;;;;;;5033498;28;20484;-70
2022/11/04 07:16:07;;;;;;;5.95;2.00;;;;;;;;;;5045088;28;20016;-70
2022/11/04 07:18:32;;;;;;;3.33;1.63;;;;;;;;;;5065463;28;20514;-70
2022/11/04 07:20:58;;;;;;;5.68;2.00;;;;;;;;;;5041449;28;20021;-70
2022/11/04 07:23:23;;;;;;;7.57;1.90;;;;;;;;;;5041940;28;20319;-70
2022/11/04 07:25:49;;;;;;;5.30;2.38;;;;;;;;;;5039497;28;20130;-70
2022/11/04 07:28:15;;;;;;;4.22;2.28;;;;;;;;;;5046731;28;20083;-70
2022/11/04 07:30:40;;;;;;;11.00;3.03;;;;;;;;;;5048750;28;20040;-70
2022/11/04 07:33:05;;;;;;;4.25;2.53;;;;;;;;;;5039580;28;20032;-69
2022/11/04 07:35:31;;;;;;;10.65;2.10;;;;;;;;;;5045544;28;20033;-70
2022/11/04 07:37:56;;;;;;;11.27;2.92;;;;;;;;;;5033986;28;20421;-70
2022/11/04 07:40:22;;;;;;;8.25;3.40;;;;;;;;;;5040972;28;20047;-70
2022/11/04 07:42:47;;;;;;;7.85;3.70;;;;;;;;;;5041771;28;20024;-70
2022/11/04 07:45:12;;;;;;;12.63;3.22;;;;;;;;;;5045540;28;20044;-70
2022/11/04 07:47:38;;;;;;;14.35;4.70;;;;;;;;;;5028673;28;20521;-70
2022/11/04 07:50:03;;;;;;;13.77;5.97;;;;;;;;;;5046521;28;20507;-70
2022/11/04 07:52:29;;;;;;;20.75;7.07;;;;;;;;;;5045401;28;20060;-70
2022/11/04 07:54:54;;;;;;;16.98;6.35;;;;;;;;;;5028871;28;20021;-70
2022/11/04 07:57:19;;;;;;;10.95;5.65;;;;;;;;;;5032100;28;20725;-70
2022/11/04 07:59:45;;;;;;;11.75;4.20;;;;;;;;;;5039698;28;20045;-70
2022/11/04 08:02:10;;;;;;;8.13;4.18;;;;;;;;;;5038459;28;20044;-70
2022/11/04 08:04:36;;;;;;;9.70;4.05;;;;;;;;;;5042566;28;20024;-70
2022/11/04 08:07:01;;;;;;;7.53;3.15;;;;;;;;;;5037146;28;20037;-70
2022/11/04 08:09:27;;;;;;;6.63;2.80;;;;;;;;;;5032251;28;20040;-70
2022/11/04 08:11:52;;;;;;;5.00;2.20;;;;;;;;;;5035130;28;20041;-70
2022/11/04 08:14:17;;;;;;;11.68;3.13;;;;;;;;;;5038029;28;20493;-70
2022/11/04 08:16:43;;;;;;;9.25;4.10;;;;;;;;;;5040535;28;20041;-70
2022/11/04 08:19:08;;;;;;;11.68;4.70;;;;;;;;;;5043147;28;20030;-71
2022/11/04 08:21:34;;;;;;;11.75;4.43;;;;;;;;;;5037180;28;20707;-70
2022/11/04 08:24:02;;;;;;;10.13;3.13;;;;;;;;;;5038950;28;20125;-70
2022/11/04 08:26:28;;;;;;;3.33;2.08;;;;;;;;;;5038455;28;20067;-70
2022/11/04 08:28:53;;;;;;;10.77;2.38;;;;;;;;;;5041950;28;20388;-70
2022/11/04 08:31:23;;;;;;;8.90;2.05;;;;;;;;;;5040398;28;20032;-70
2022/11/04 08:33:48;;;;;;;7.68;2.17;;;;;;;;;;5041185;28;20079;-70
2022/11/04 08:36:23;;;;;;;11.13;2.22;;;;;;;;;;5037673;28;20033;-70
2022/11/04 08:38:49;;;;;;;7.30;2.45;;;;;;;;;;5032386;28;20135;-70
2022/11/04 08:41:18;;;;;;;6.30;2.10;;;;;;;;;;5020939;28;20466;-70
2022/11/04 08:43:44;;;;;;;5.55;2.13;;;;;;;;;;5033204;28;20475;-70
2022/11/04 08:46:10;;;;;;;7.25;3.10;;;;;;;;;;5037521;28;20045;-70
2022/11/04 08:48:38;;;;;;;6.15;2.28;;;;;;;;;;5035887;28;20094;-70
2022/11/04 08:51:04;;;;;;;9.52;2.28;;;;;;;;;;5038507;28;20507;-70
2022/11/04 08:53:30;;;;;;;4.22;2.30;;;;;;;;;;5030866;28;20060;-70
2022/11/04 08:55:55;;;;;;;5.38;2.35;;;;;;;;;;5043914;28;20112;-70
2022/11/04 08:58:22;;;;;;;5.72;2.53;;;;;;;;;;5036385;28;20025;-70
2022/11/04 09:00:48;;;;;;;4.80;2.35;;;;;;;;;;5036722;28;20029;-70
2022/11/04 09:03:14;;;;;;;7.38;2.47;;;;;;;;;;5046366;28;20063;-70
2022/11/04 09:05:43;;;;;;;6.63;2.45;;;;;;;;;;5041247;28;20048;-70
2022/11/04 09:08:14;;;;;;;7.68;2.67;;;;;;;;;;5030760;28;20392;-70
2022/11/04 09:10:41;;;;;;;8.10;2.67;;;;;;;;;;5024974;28;20049;-70
2022/11/04 09:13:09;;;;;;;7.15;2.22;;;;;;;;;;5026504;28;20422;-70
2022/11/04 09:15:34;;;;;;;9.02;2.38;;;;;;;;;;5024645;28;20120;-70
2022/11/04 09:18:00;;;;;;;8.52;2.85;;;;;;;;;;5030246;28;20119;-70
2022/11/04 09:20:26;;;;;;;7.40;2.50;;;;;;;;;;5034130;28;20585;-70
2022/11/04 09:22:52;;;;;;;6.30;2.40;;;;;;;;;;5036107;28;20136;-70
2022/11/04 09:25:17;;;;;;;8.68;2.22;;;;;;;;;;5040726;28;20036;-70
2022/11/04 09:27:43;;;;;;;5.70;2.35;;;;;;;;;;5046556;28;20043;-70
2022/11/04 09:30:09;;;;;;;5.55;2.33;;;;;;;;;;5044905;28;20072;-70
2022/11/04 09:32:34;;;;;;;8.90;2.55;;;;;;;;;;5046509;28;20807;-70
2022/11/04 09:34:59;;;;;;;6.88;2.65;;;;;;;;;;5045077;28;20079;-70
2022/11/04 09:37:24;;;;;;;10.70;2.40;;;;;;;;;;5042822;28;20017;-70
2022/11/04 09:39:50;;;;;;;7.53;2.25;;;;;;;;;;5035161;28;20131;-70
2022/11/04 09:42:39;;;;;;;7.68;2.35;;;;;;;;;;5044209;28;20510;-70
2022/11/04 09:45:17;;;;;;;7.18;2.55;;;;;;;;;;5045168;28;20112;-70
2022/11/04 09:47:45;;;;;;;8.43;2.85;;;;;;;;;;5047429;28;20556;-70
2022/11/04 09:50:21;;;;;;;10.20;2.53;;;;;;;;;;5044792;28;20524;-70
2022/11/04 09:52:53;;;;;;;8.27;2.33;;;;;;;;;;5044710;28;20715;-70
2022/11/04 09:55:40;;;;;;;6.05;2.28;;;;;;;;;;5044587;28;20017;-70
2022/11/04 09:58:11;;;;;;;7.82;2.35;;;;;;;;;;5046321;28;20041;-71
2022/11/04 10:00:38;;;;;;;9.95;2.38;;;;;;;;;;5046354;28;20037;-70
2022/11/04 10:03:58;;;;;;;7.93;2.00;;;;;;;;;;5045072;28;20056;-70
2022/11/04 10:06:42;;;;;;;6.93;2.22;;;;;;;;;;5022511;28;20053;-70
2022/11/04 10:09:20;;;;;;;10.95;2.50;;;;;;;;;;5043058;28;20051;-69
2022/11/04 10:12:13;;;;;;;6.47;2.00;;;;;;;;;;5028617;28;20069;-70
2022/11/04 10:15:11;;;;;;;11.07;2.40;;;;;;;;;;5027233;28;20041;-70
2022/11/04 10:18:11;;;;;;;5.57;1.75;;;;;;;;;;5022365;28;20141;-70
2022/11/04 10:20:55;;;;;;;7.88;2.03;;;;;;;;;;5036266;28;20045;-70
2022/11/04 10:23:21;;;;;;;;;;;;;;;;;;5038210;28;20040;-70
2022/11/04 10:25:51;;;;;;;8.48;2.00;;;;;;;;;;5031362;28;19925;-70
2022/11/04 10:28:19;;;;;;;13.48;2.53;;;;;;;;;;5039817;28;20745;-70
2022/11/04 10:30:47;;;;;;;4.20;1.80;;;;;;;;;;5031763;28;20518;-70
2022/11/04 10:33:22;;;;;;;7.45;2.10;;;;;;;;;;5027789;28;20118;-70
2022/11/04 10:35:52;;;;;;;13.27;2.53;;;;;;;;;;5030553;28;20040;-70
2022/11/04 10:38:19;;;;;;;7.07;2.47;;;;;;;;;;5033147;28;20039;-70
2022/11/04 10:40:47;;;;;;;6.75;2.58;;;;;;;;;;5036660;28;20571;-69
2022/11/04 10:43:17;;;;;;;7.03;2.42;;;;;;;;;;5038451;28;20029;-70
2022/11/04 10:46:04;;;;;;;8.95;2.65;;;;;;;;;;5036870;28;20052;-69
2022/11/04 10:48:39;;;;;;;8.93;2.83;;;;;;;;;;5030492;28;20037;-70
2022/11/04 10:51:05;;;;;;;8.10;2.50;;;;;;;;;;5035861;28;20036;-70
2022/11/04 10:53:32;;;;;;;8.88;3.00;;;;;;;;;;5044334;28;20037;-70
2022/11/04 10:56:28;;;;;;;5.78;2.45;;;;;;;;;;5041143;28;20043;-70
2022/11/04 10:58:54;;;;;;;10.73;2.70;;;;;;;;;;5033906;28;20106;-70
2022/11/04 11:01:32;;;;;;;6.75;2.67;;;;;;;;;;5040263;28;20919;-70
2022/11/04 11:03:58;;;;;;;7.25;3.40;;;;;;;;;;5038776;28;20025;-70
2022/11/04 11:06:29;;;;;;;7.35;3.35;;;;;;;;;;5035011;28;20056;-70
2022/11/04 11:09:11;;;;;;;6.90;2.60;;;;;;;;;;5040508;28;20045;-70
2022/11/04 11:11:37;;;;;;;5.47;2.60;;;;;;;;;;5028885;28;20032;-70
2022/11/04 11:14:02;;;;;;;8.50;3.08;;;;;;;;;;5036454;28;20414;-70
2022/11/04 11:16:30;;;;;;;8.30;3.63;;;;;;;;;;5045311;28;20029;-69
2022/11/04 11:19:11;;;;;;;12.38;2.95;;;;;;;;;;5036346;28;20021;-70
2022/11/04 11:22:03;;;;;;;8.68;3.30;;;;;;;;;;5041575;28;20037;-70
2022/11/04 11:24:33;;;;;;;7.38;3.50;;;;;;;;;;5032488;28;20048;-70
2022/11/04 11:27:01;;;;;;;9.40;3.33;;;;;;;;;;5033312;28;20136;-70
2022/11/04 11:29:39;;;;;;;7.82;3.35;;;;;;;;;;5039209;28;20049;-70
2022/11/04 11:32:14;;;;;;;9.25;3.30;;;;;;;;;;5048565;28;20454;-70
2022/11/04 11:34:44;;;;;;;8.63;3.25;;;;;;;;;;5035253;28;20044;-70
2022/11/04 11:37:21;;;;;;;8.65;4.10;;;;;;;;;;5038265;28;20029;-70
2022/11/04 11:39:46;;;;;;;6.20;3.67;;;;;;;;;;5043564;28;20041;-70
2022/11/04 11:42:15;;;;;;;11.40;3.63;;;;;;;;;;5047310;28;20098;-70
2022/11/04 11:44:50;;;;;;;7.85;3.45;;;;;;;;;;5047337;28;20533;-70
2022/11/04 11:47:35;;;;;;;8.35;3.95;;;;;;;;;;5065056;28;20127;-70
2022/11/04 11:50:13;;;;;;;8.70;3.50;;;;;;;;;;5033622;28;20069;-70
2022/11/04 11:52:40;;;;;;;10.45;3.42;;;;;;;;;;5041358;28;20084;-69
2022/11/04 11:55:15;;;;;;;14.07;4.55;;;;;;;;;;5054473;28;20025;-70
2022/11/04 11:57:45;;;;;;;9.10;4.00;;;;;;;;;;5037548;28;20068;-70
2022/11/04 12:00:15;;;;;;;8.93;4.15;;;;;;;;;;5041306;28;20049;-70
2022/11/04 12:02:53;;;;;;;10.55;4.30;;;;;;;;;;5041833;28;20037;-70
2022/11/04 12:05:22;;;;;;;10.10;4.22;;;;;;;;;;5048279;28;20041;-70
2022/11/04 12:08:06;;;;;;;8.65;3.25;;;;;;;;;;5047250;28;20469;-70
2022/11/04 12:10:37;;;;;;;;;;;;;;;;;;5047894;28;20025;-70
2022/11/04 12:13:14;;;;;;;6.07;3.50;;;;;;;;;;5047204;28;20390;-70
2022/11/04 12:16:08;;;;;;;9.55;3.92;;;;;;;;;;5038436;28;20041;-70
2022/11/04 12:19:11;;;;;;;7.53;3.00;;;;;;;;;;5048856;28;20060;-70
2022/11/04 12:21:47;;;;;;;10.18;3.10;;;;;;;;;;5006259;28;20095;-70
2022/11/04 12:24:27;;;;;;;7.32;3.40;;;;;;;;;;5036327;28;20048;-70
2022/11/04 12:27:10;;;;;;;8.80;3.30;;;;;;;;;;5037503;28;20132;-70
2022/11/04 12:29:51;;;;;;;8.18;3.80;;;;;;;;;;5041809;28;20037;-70
2022/11/04 12:32:35;;;;;;;9.82;4.10;;;;;;;;;;5047559;28;20128;-70
2022/11/04 12:35:38;;;;;;;7.18;3.70;;;;;;;;;;5039502;28;20040;-70
2022/11/04 12:38:30;;;;;;;6.55;3.55;;;;;;;;;;5027419;28;20146;-70
2022/11/04 12:41:14;;;;;;;10.30;3.30;;;;;;;;;;5045667;28;20094;-70
2022/11/04 12:44:04;;;;;;;9.20;3.53;;;;;;;;;;5037934;28;20126;-70
2022/11/04 12:46:55;;;;;;;7.25;3.65;;;;;;;;;;5041993;28;20048;-70
2022/11/04 12:49:26;;;;;;;8.07;4.35;;;;;;;;;;5041659;28;20060;-70
2022/11/04 12:52:45;;;;;;;8.50;4.32;;;;;;;;;;5064692;28;20025;-70
2022/11/04 12:55:10;;;;;;;10.88;4.18;;;;;;;;;;4994196;28;20050;-70
2022/11/04 12:58:03;;;;;;;9.68;4.55;;;;;;;;;;5032563;28;20538;-70
2022/11/04 13:00:30;;;;;;;12.55;5.80;;;;;;;;;;5048246;28;20045;-70
2022/11/04 13:03:17;;;;;;;10.15;5.78;;;;;;;;;;5046721;28;20033;-70
2022/11/04 13:06:03;;;;;;;14.13;5.55;;;;;;;;;;5046500;28;20075;-70
2022/11/04 13:09:19;;;;;;;12.68;5.18;;;;;;;;;;5046537;28;20121;-70
2022/11/04 13:11:54;;;;;;;10.77;4.60;;;;;;;;;;5025226;28;20143;-70
2022/11/04 13:14:31;;;;;;;10.32;5.60;;;;;;;;;;5025481;28;20087;-70
2022/11/04 13:17:04;;;;;;;13.45;5.72;;;;;;;;;;5039768;28;20115;-70
2022/11/04 13:19:39;;;;;;;12.45;5.30;;;;;;;;;;5043153;28;20029;-70
2022/11/04 13:22:10;;;;;;;12.98;4.97;;;;;;;;;;5045146;28;20033;-70
2022/11/04 13:24:38;;;;;;;11.30;5.85;;;;;;;;;;5046814;28;20036;-70
2022/11/04 13:27:17;;;;;;;10.48;5.97;;;;;;;;;;5042683;28;20033;-70
2022/11/04 13:29:42;;;;;;;14.48;6.50;;;;;;;;;;5035254;28;20124;-70
2022/11/04 13:32:34;;;;;;;12.30;6.63;;;;;;;;;;5032538;28;20111;-70
2022/11/04 13:35:20;;;;;;;15.32;6.07;;;;;;;;;;5023239;28;20037;-67
2022/11/04 13:37:57;;;;;;;11.35;5.85;;;;;;;;;;5026511;28;20033;-65
2022/11/04 13:40:34;;;;;;;11.00;5.43;;;;;;;;;;5040915;28;20607;-65
2022/11/04 13:46:00;;;;;;;13.25;5.97;;;;;;;;;;5042250;28;20120;-66
2022/11/04 13:48:32;;;;;;;11.48;6.05;;;;;;;;;;5065403;28;20047;-65
2022/11/04 13:51:10;;;;;;;16.05;6.28;;;;;;;;;;5066355;28;20024;-64
2022/11/04 13:53:56;;;;;;;13.85;6.25;;;;;;;;;;5056902;28;20033;-65
2022/11/04 13:56:39;;;;;;;14.85;6.43;;;;;;;;;;5041947;28;20069;-65
2022/11/04 13:59:19;;;;;;;13.93;5.65;;;;;;;;;;5046301;28;20083;-66
2022/11/04 14:01:45;;;;;;;11.52;5.50;;;;;;;;;;5043750;28;20405;-65
2022/11/04 14:04:16;;;;;;;12.45;5.97;;;;;;;;;;5031118;28;20487;-65
2022/11/04 14:07:02;;;;;;;13.15;6.32;;;;;;;;;;5026188;28;20061;-65
2022/11/04 14:09:28;;;;;;;13.90;6.60;;;;;;;;;;5026296;28;20033;-66
2022/11/04 14:12:09;;;;;;;17.83;7.13;;;;;;;;;;5025449;28;20056;-66
2022/11/04 14:14:34;;;;;;;17.17;6.32;;;;;;;;;;5026912;28;20558;-67
2022/11/04 14:17:03;;;;;;;16.95;7.43;;;;;;;;;;5039388;28;20093;-65
2022/11/04 14:19:46;;;;;;;11.30;6.05;;;;;;;;;;5045813;28;20029;-64
2022/11/04 14:22:16;;;;;;;13.85;6.45;;;;;;;;;;5046007;28;20051;-64
2022/11/04 14:24:43;;;;;;;12.60;5.80;;;;;;;;;;5040916;28;20037;-65
2022/11/04 14:27:39;;;;;;;11.15;5.05;;;;;;;;;;5045506;28;20045;-64
2022/11/04 14:30:05;;;;;;;11.90;3.90;;;;;;;;;;5040360;28;20041;-65
2022/11/04 14:32:36;;;;;;;11.32;4.90;;;;;;;;;;5044700;28;20099;-64
2022/11/04 14:35:05;;;;;;;9.75;4.85;;;;;;;;;;5043981;28;20515;-65
2022/11/04 14:37:34;;;;;;;10.60;4.80;;;;;;;;;;5043551;28;20078;-65
2022/11/04 14:40:02;;;;;;;8.27;4.05;;;;;;;;;;5043976;28;20510;-65
2022/11/04 14:42:46;;;;;;;9.20;4.57;;;;;;;;;;5042027;28;20492;-65
2022/11/04 14:45:17;;;;;;;8.07;3.15;;;;;;;;;;5031994;28;20065;-65
2022/11/04 14:47:47;;;;;;;6.97;3.85;;;;;;;;;;5010759;28;1174849;-65
2022/11/04 14:50:18;;;;;;;6.00;3.30;;;;;;;;;;5037830;28;20419;-64
2022/11/04 14:52:43;;;;;;;5.78;3.10;;;;;;;;;;5055939;28;20037;-64
2022/11/04 14:55:11;;;;;;;5.60;3.40;;;;;;;;;;5041145;28;20035;-65
2022/11/04 14:57:39;;;;;;;7.55;3.55;;;;;;;;;;5033472;28;20063;-65
2022/11/04 15:00:19;;;;;;;5.85;3.53;;;;;;;;;;5038798;28;20041;-65
2022/11/04 15:02:45;;;;;;;5.18;2.03;;;;;;;;;;5026086;28;20038;-65
2022/11/04 15:05:23;;;;;;;5.22;2.70;;;;;;;;;;5053239;28;20033;-64
2022/11/04 15:07:49;;;;;;;3.25;1.23;;;;;;;;;;5029142;28;20069;-65
2022/11/04 15:10:23;;;;;;;3.50;1.27;;;;;;;;;;5037985;28;20788;-64
2022/11/04 15:12:49;;;;;;;1.50;1.10;;;;;;;;;;5039464;28;20586;-65
2022/11/04 15:15:28;;;;;;;1.85;1.30;;;;;;;;;;5064455;28;20036;-64
2022/11/04 15:17:58;;;;;;;2.17;1.20;;;;;;;;;;5064706;28;20040;-65
2022/11/04 15:20:25;;;;;;;2.70;1.17;;;;;;;;;;5057813;28;20033;-64
2022/11/04 15:22:52;;;;;;;1.92;1.00;;;;;;;;;;5045337;28;20044;-64
2022/11/04 15:25:18;;;;;;;3.10;1.20;;;;;;;;;;5045688;28;20493;-65
2022/11/04 15:27:44;;;;;;;2.17;0.90;;;;;;;;;;5037773;28;20029;-65
2022/11/04 15:30:28;;;;;;;1.30;0.82;;;;;;;;;;5046875;28;20029;-63
2022/11/04 15:32:58;;;;;;;1.63;0.73;;;;;;;;;;5064068;28;20112;-64
2022/11/04 15:35:25;;;;;;;1.75;0.90;;;;;;;;;;5064913;28;20042;-63
2022/11/04 15:37:52;;;;;;;2.05;0.88;;;;;;;;;;5065603;28;20048;-64